LCA weather

Larnaca International Airport
Larnarca, Larnarca District, Cyprus

Public forecast

Using degrees Celsius for public forecast. Weather courtesy of forecast.io.

METAR (pilot weather report)

Retrieved 2019/03/19 19:00 UTC (7 minutes ago):

LCLK 191900Z 33006KT 9999 SCT025 15/13 Q1018 NOSIG

TAF (pilot weather forecast)

Retrieved 2019/03/19 18:30 UTC (37 minutes ago):

TAF LCLK 191730Z 1918/2018 31006KT 9999 FEW020 PROB30 TEMPO 1922/2006 3000 BR BKN003 BECMG 2007/2010 06010KT